Time;durP1;ratioP1;P1;durP2;ratioP2;P2;SDS_P1;SDS_P2;PMS_P1;PMS_P2;Temp;Humidity;BMP_temperature;BMP_pressure;BME280_temperature;BME280_humidity;BME280_pressure;Samples;Min_cycle;Max_cycle;Signal;HPM_P1;HPM_P2
2020/12/27 00:00:20;;;;;;;8.07;7.13;;;5.90;99.90;;;;;;4954205;29;20207;-84
2020/12/27 00:02:47;;;;;;;10.40;9.35;;;6.00;99.90;;;;;;4953639;29;20475;-85
2020/12/27 00:05:15;;;;;;;10.70;8.67;;;6.10;99.90;;;;;;4955116;29;20210;-84
2020/12/27 00:07:44;;;;;;;8.93;8.07;;;6.00;99.90;;;;;;4955329;29;20242;-84
2020/12/27 00:10:10;;;;;;;9.10;7.27;;;6.00;99.90;;;;;;4954937;29;20223;-84
2020/12/27 00:12:37;;;;;;;10.00;7.87;;;5.90;99.90;;;;;;4938699;29;20219;-84
2020/12/27 00:15:05;;;;;;;8.73;7.83;;;6.00;99.90;;;;;;4954792;29;20246;-84
2020/12/27 00:17:32;;;;;;;10.77;7.40;;;6.00;99.90;;;;;;4955549;29;20230;-84
2020/12/27 00:20:00;;;;;;;7.20;6.50;;;5.90;99.90;;;;;;4954749;29;20214;-83
2020/12/27 00:22:28;;;;;;;9.07;7.33;;;5.80;99.90;;;;;;4955555;29;20226;-84
2020/12/27 00:24:58;;;;;;;9.87;7.97;;;5.80;99.90;;;;;;4955420;29;20215;-84
2020/12/27 00:27:25;;;;;;;8.53;7.43;;;5.80;99.90;;;;;;4954939;29;20230;-84
2020/12/27 00:29:53;;;;;;;8.23;7.03;;;5.80;99.90;;;;;;4955601;29;20206;-84
2020/12/27 00:32:20;;;;;;;8.80;7.33;;;5.90;99.90;;;;;;4954525;29;20211;-84
2020/12/27 00:34:47;;;;;;;9.37;7.20;;;5.90;99.90;;;;;;4954537;29;20227;-84
2020/12/27 00:37:15;;;;;;;8.17;6.83;;;5.90;99.90;;;;;;4953534;29;20245;-84
2020/12/27 00:39:42;;;;;;;7.43;6.57;;;5.90;99.90;;;;;;4970034;23;20253;-84
2020/12/27 00:42:11;;;;;;;10.77;7.03;;;5.90;99.90;;;;;;4954855;29;20226;-84
2020/12/27 00:44:38;;;;;;;8.17;7.33;;;5.90;99.90;;;;;;4953799;29;20251;-84
2020/12/27 00:47:07;;;;;;;7.90;6.70;;;6.00;99.90;;;;;;4944589;29;20227;-85
2020/12/27 00:49:34;;;;;;;8.00;6.67;;;5.90;99.90;;;;;;4917732;29;20203;-84
2020/12/27 00:52:02;;;;;;;7.00;6.30;;;5.90;99.90;;;;;;4935085;29;20311;-85
2020/12/27 00:54:28;;;;;;;10.83;6.53;;;5.90;99.90;;;;;;4934216;29;20235;-85
2020/12/27 00:56:59;;;;;;;7.37;6.33;;;5.80;99.90;;;;;;4917770;29;20227;-85
2020/12/27 00:59:27;;;;;;;6.93;5.77;;;5.90;99.90;;;;;;4934960;29;20231;-84
2020/12/27 01:01:55;;;;;;;8.20;6.77;;;5.90;99.90;;;;;;4934053;29;20211;-84
2020/12/27 01:04:22;;;;;;;9.13;6.00;;;5.90;99.90;;;;;;4935714;29;20199;-85
2020/12/27 01:06:48;;;;;;;7.90;7.00;;;5.90;99.90;;;;;;4934853;29;20447;-84
2020/12/27 01:09:23;;;;;;;8.03;6.63;;;6.00;99.90;;;;;;4934940;29;20211;-84
2020/12/27 01:11:50;;;;;;;7.90;5.97;;;5.90;99.90;;;;;;4935499;29;20210;-84
2020/12/27 01:14:19;;;;;;;5.87;5.30;;;5.90;99.90;;;;;;4935492;29;20647;-84
2020/12/27 01:16:52;;;;;;;6.93;5.33;;;5.90;99.90;;;;;;4935757;29;20231;-85
2020/12/27 01:19:19;;;;;;;6.67;4.73;;;5.90;99.90;;;;;;4934658;29;20211;-84
2020/12/27 01:21:47;;;;;;;7.20;5.67;;;5.90;99.90;;;;;;4934680;29;20214;-84
2020/12/27 01:24:14;;;;;;;5.80;5.20;;;5.90;99.90;;;;;;4934628;29;20207;-84
2020/12/27 01:26:42;;;;;;;7.00;5.17;;;5.90;99.90;;;;;;4934156;29;20235;-84
2020/12/27 01:29:10;;;;;;;6.90;5.70;;;5.90;99.90;;;;;;4935204;29;20238;-84
2020/12/27 01:31:40;;;;;;;5.30;4.80;;;5.90;99.90;;;;;;4935692;29;20218;-84
2020/12/27 01:34:10;;;;;;;5.40;4.90;;;5.90;99.90;;;;;;4934325;29;20247;-84
2020/12/27 01:36:40;;;;;;;8.87;4.83;;;5.90;99.90;;;;;;4918310;29;20226;-84
2020/12/27 01:39:08;;;;;;;4.97;4.53;;;6.00;99.90;;;;;;4933902;29;20239;-84
2020/12/27 01:41:38;;;;;;;5.10;4.60;;;5.90;99.90;;;;;;4934848;29;20207;-84
2020/12/27 01:44:10;;;;;;;8.57;4.70;;;5.90;99.90;;;;;;4934078;29;20219;-84
2020/12/27 01:46:44;;;;;;;4.83;4.07;;;6.00;99.90;;;;;;4933669;29;20231;-84
2020/12/27 01:49:12;;;;;;;6.67;4.33;;;6.00;99.90;;;;;;4933817;29;20211;-83
2020/12/27 01:51:41;;;;;;;4.57;3.90;;;6.00;99.90;;;;;;4934406;29;20270;-84
2020/12/27 01:54:08;;;;;;;5.30;4.40;;;6.10;99.90;;;;;;4933821;29;20635;-84
2020/12/27 01:56:38;;;;;;;4.83;3.93;;;6.10;99.90;;;;;;4933925;29;20227;-84
2020/12/27 01:59:07;;;;;;;5.67;3.93;;;6.10;99.90;;;;;;4933849;29;20214;-84
2020/12/27 02:01:37;;;;;;;4.70;3.90;;;6.10;99.90;;;;;;4933791;29;20217;-84
2020/12/27 02:04:05;;;;;;;4.57;3.80;;;6.10;99.90;;;;;;4933602;29;20207;-84
2020/12/27 02:06:44;;;;;;;4.30;3.80;;;6.10;99.90;;;;;;4934202;29;20230;-84
2020/12/27 02:09:14;;;;;;;4.60;4.20;;;6.20;99.90;;;;;;4932946;29;20925;-84
2020/12/27 02:11:41;;;;;;;3.90;3.60;;;6.20;99.90;;;;;;4933654;29;20215;-84
2020/12/27 02:14:09;;;;;;;5.07;3.30;;;6.20;99.90;;;;;;4934014;29;20235;-84
2020/12/27 02:16:36;;;;;;;3.60;3.30;;;6.30;99.90;;;;;;4934507;29;20258;-84
2020/12/27 02:19:08;;;;;;;4.37;3.50;;;6.20;99.90;;;;;;4933629;29;20231;-84
2020/12/27 02:21:36;;;;;;;3.50;3.03;;;6.20;99.90;;;;;;4933763;29;20294;-84
2020/12/27 02:24:06;;;;;;;3.23;2.97;;;6.20;99.90;;;;;;4934576;29;20219;-83
2020/12/27 02:26:34;;;;;;;4.40;3.37;;;6.20;99.90;;;;;;4934407;29;20227;-84
2020/12/27 02:29:01;;;;;;;4.07;3.00;;;6.20;99.90;;;;;;4933849;29;20207;-84
2020/12/27 02:31:30;;;;;;;4.50;3.27;;;6.20;99.90;;;;;;4933744;29;20215;-84
2020/12/27 02:33:58;;;;;;;3.70;2.97;;;6.30;99.90;;;;;;4917504;29;20207;-84
2020/12/27 02:36:31;;;;;;;4.83;3.07;;;6.20;99.90;;;;;;4933927;29;20238;-84
2020/12/27 02:38:58;;;;;;;8.63;3.57;;;6.10;99.90;;;;;;4919809;29;20211;-84
2020/12/27 02:41:27;;;;;;;3.53;3.23;;;6.20;99.90;;;;;;4937321;29;20218;-84
2020/12/27 02:43:57;;;;;;;3.50;3.30;;;6.20;99.90;;;;;;4919550;29;20287;-84
2020/12/27 02:46:26;;;;;;;3.23;2.90;;;6.20;99.90;;;;;;4936520;29;20242;-84
2020/12/27 02:48:54;;;;;;;2.97;2.77;;;6.30;99.90;;;;;;4969930;23;20252;-84
2020/12/27 02:51:22;;;;;;;6.67;3.23;;;6.30;99.90;;;;;;4957818;29;20288;-84
2020/12/27 02:53:51;;;;;;;2.93;2.67;;;6.30;99.90;;;;;;4974616;29;20217;-84
2020/12/27 02:56:19;;;;;;;2.83;2.63;;;6.30;99.90;;;;;;4974931;29;20296;-84
2020/12/27 02:58:54;;;;;;;2.73;2.53;;;6.40;99.90;;;;;;4974559;28;20225;-85
2020/12/27 03:01:21;;;;;;;3.53;2.67;;;6.30;99.90;;;;;;4974017;29;20205;-85
2020/12/27 03:03:48;;;;;;;2.90;2.70;;;6.30;99.90;;;;;;4975028;29;20226;-84
2020/12/27 03:06:18;;;;;;;2.63;2.43;;;6.50;99.90;;;;;;4973484;29;20230;-84
2020/12/27 03:08:54;;;;;;;2.80;2.47;;;6.40;99.90;;;;;;4974115;28;20206;-84
2020/12/27 03:11:22;;;;;;;3.33;2.33;;;6.40;99.90;;;;;;4974474;29;20206;-84
2020/12/27 03:13:52;;;;;;;2.80;2.60;;;6.50;99.90;;;;;;4972360;29;20450;-84
2020/12/27 03:16:19;;;;;;;3.33;2.43;;;6.50;99.90;;;;;;4973069;28;20234;-85
2020/12/27 03:18:48;;;;;;;2.40;2.20;;;6.60;99.90;;;;;;4974332;29;20226;-84
2020/12/27 03:21:15;;;;;;;4.00;2.20;;;6.60;99.90;;;;;;4973724;29;20214;-84
2020/12/27 03:23:43;;;;;;;3.23;1.90;;;6.60;99.90;;;;;;4974329;29;20221;-85
2020/12/27 03:26:12;;;;;;;2.70;2.00;;;6.60;99.90;;;;;;4973823;29;20260;-84
2020/12/27 03:28:39;;;;;;;3.17;1.80;;;6.60;99.90;;;;;;4957899;29;20625;-85
2020/12/27 03:31:07;;;;;;;2.27;1.87;;;6.60;99.90;;;;;;4974160;29;20229;-84
2020/12/27 03:33:36;;;;;;;2.47;2.17;;;6.80;99.90;;;;;;4973915;28;20226;-84
2020/12/27 03:36:03;;;;;;;2.67;1.60;;;6.70;99.90;;;;;;4973079;29;20241;-84
2020/12/27 03:38:38;;;;;;;4.00;2.03;;;6.70;99.90;;;;;;4974651;29;20225;-84
2020/12/27 03:41:05;;;;;;;1.60;1.50;;;6.60;99.90;;;;;;4973680;29;20229;-84
2020/12/27 03:43:32;;;;;;;1.80;1.70;;;6.60;99.90;;;;;;4974219;29;20210;-84
2020/12/27 03:45:59;;;;;;;1.63;1.53;;;6.50;99.90;;;;;;4972982;29;20209;-84
2020/12/27 03:48:28;;;;;;;1.40;1.30;;;6.50;99.90;;;;;;4956131;29;20285;-84
2020/12/27 03:50:54;;;;;;;1.73;1.60;;;6.50;99.90;;;;;;4958365;29;20654;-84
2020/12/27 03:53:21;;;;;;;1.60;1.50;;;6.60;99.90;;;;;;4974461;29;20234;-84
2020/12/27 03:55:48;;;;;;;3.73;1.67;;;6.60;99.90;;;;;;4974745;29;20257;-83
2020/12/27 03:58:16;;;;;;;1.50;1.40;;;6.50;99.90;;;;;;4973473;29;20258;-83
2020/12/27 04:00:46;;;;;;;2.97;1.70;;;6.60;99.90;;;;;;4974070;29;20198;-84
2020/12/27 04:03:14;;;;;;;1.57;1.40;;;6.40;99.90;;;;;;4966359;29;20233;-83
2020/12/27 04:05:42;;;;;;;1.70;1.70;;;6.40;99.90;;;;;;4973850;29;20213;-84
2020/12/27 04:08:11;;;;;;;1.60;1.50;;;6.30;99.90;;;;;;4973956;29;20398;-84
2020/12/27 04:10:41;;;;;;;1.50;1.33;;;6.30;99.90;;;;;;4974422;29;20202;-84
2020/12/27 04:13:12;;;;;;;2.23;1.67;;;6.30;99.90;;;;;;4974614;29;20226;-84
2020/12/27 04:15:39;;;;;;;1.57;1.47;;;6.30;99.90;;;;;;4974131;29;20246;-84
2020/12/27 04:18:07;;;;;;;1.37;1.30;;;6.30;99.90;;;;;;4973960;29;20222;-84
2020/12/27 04:20:34;;;;;;;1.53;1.43;;;6.30;99.90;;;;;;4973151;28;20221;-84
2020/12/27 04:23:05;;;;;;;1.70;1.60;;;6.30;99.90;;;;;;4974035;29;20237;-83
2020/12/27 04:25:33;;;;;;;1.80;1.40;;;6.30;99.90;;;;;;4973110;29;20266;-83
2020/12/27 04:28:00;;;;;;;1.73;1.63;;;6.30;99.90;;;;;;4973980;29;20230;-84
2020/12/27 04:30:28;;;;;;;2.47;1.57;;;6.40;99.90;;;;;;4973495;29;20205;-84
2020/12/27 04:32:56;;;;;;;1.63;1.10;;;6.40;99.90;;;;;;4972935;29;20218;-84
2020/12/27 04:35:24;;;;;;;1.20;1.20;;;6.40;99.90;;;;;;4972301;29;20264;-84
2020/12/27 04:37:52;;;;;;;1.47;1.20;;;6.40;99.90;;;;;;4973935;29;20230;-84
2020/12/27 04:40:27;;;;;;;1.37;1.27;;;6.40;99.90;;;;;;4973401;29;20210;-84
2020/12/27 04:42:55;;;;;;;1.50;1.40;;;6.40;99.90;;;;;;4972362;29;20238;-84
2020/12/27 04:45:23;;;;;;;1.33;1.30;;;6.30;99.90;;;;;;4973932;29;20209;-84
2020/12/27 04:47:54;;;;;;;2.17;1.37;;;6.30;99.90;;;;;;4973879;28;20242;-83
2020/12/27 04:50:23;;;;;;;1.27;1.10;;;6.30;99.90;;;;;;4973370;29;20221;-83
2020/12/27 04:52:52;;;;;;;2.60;1.13;;;6.30;99.90;;;;;;4972298;29;20226;-84
2020/12/27 04:55:20;;;;;;;1.10;1.00;;;6.20;99.90;;;;;;4972645;29;20245;-84
2020/12/27 04:57:50;;;;;;;1.30;1.20;;;6.20;99.90;;;;;;4973433;29;20258;-83
2020/12/27 05:00:21;;;;;;;1.10;1.10;;;6.20;99.90;;;;;;4971770;28;20194;-84
2020/12/27 05:02:49;;;;;;;1.10;1.00;;;6.20;99.90;;;;;;4972599;28;20220;-83
2020/12/27 05:05:16;;;;;;;1.03;1.03;;;6.20;99.90;;;;;;4956414;29;20258;-83
2020/12/27 05:07:46;;;;;;;1.50;1.30;;;6.20;99.90;;;;;;4972885;29;20236;-82
2020/12/27 05:10:13;;;;;;;1.43;1.10;;;6.20;99.90;;;;;;4972864;29;20214;-83
2020/12/27 05:12:43;;;;;;;1.87;1.40;;;6.20;99.90;;;;;;4972574;29;20217;-83
2020/12/27 05:15:22;;;;;;;1.13;0.90;;;6.20;99.90;;;;;;4972655;29;20222;-83
2020/12/27 05:17:56;;;;;;;1.20;1.10;;;6.30;99.90;;;;;;4972796;29;20225;-82
2020/12/27 05:20:23;;;;;;;1.10;0.77;;;6.20;99.90;;;;;;4972580;29;20205;-83
2020/12/27 05:22:52;;;;;;;0.90;0.90;;;6.20;99.90;;;;;;4973094;29;20204;-83
2020/12/27 05:25:22;;;;;;;1.77;1.00;;;6.20;99.90;;;;;;4972637;29;20191;-84
2020/12/27 05:27:55;;;;;;;0.70;0.70;;;6.30;99.90;;;;;;4971581;29;20250;-83
2020/12/27 05:30:28;;;;;;;0.80;0.80;;;6.30;99.90;;;;;;4972704;29;20202;-83
2020/12/27 05:33:10;;;;;;;0.93;0.90;;;6.40;99.90;;;;;;4971454;29;20209;-84
2020/12/27 05:35:38;;;;;;;1.50;0.60;;;6.20;99.90;;;;;;4972521;29;20229;-83
2020/12/27 05:38:08;;;;;;;0.70;0.70;;;6.20;99.90;;;;;;4971615;29;20225;-84
2020/12/27 05:40:36;;;;;;;0.90;0.90;;;6.30;99.90;;;;;;4971590;29;20214;-83
2020/12/27 05:43:15;;;;;;;0.60;0.60;;;6.30;99.90;;;;;;4971639;29;20210;-83
2020/12/27 05:45:45;;;;;;;0.93;0.50;;;6.30;99.90;;;;;;4970474;29;20233;-83
2020/12/27 05:48:12;;;;;;;0.60;0.60;;;6.20;99.90;;;;;;4971809;29;20245;-83
2020/12/27 05:50:44;;;;;;;0.50;0.50;;;6.30;99.90;;;;;;4955224;29;20282;-83
2020/12/27 05:53:19;;;;;;;1.13;0.70;;;6.40;99.90;;;;;;4970543;29;20440;-83
2020/12/27 05:55:48;;;;;;;0.67;0.67;;;6.30;99.90;;;;;;4971623;29;20239;-84
2020/12/27 06:01:06;;;;;;;1.80;0.53;;;6.40;99.90;;;;;;4971720;29;20261;-83
2020/12/27 06:04:01;;;;;;;0.70;0.70;;;6.40;99.90;;;;;;4971631;29;20225;-83
2020/12/27 06:07:12;;;;;;;0.53;0.53;;;6.30;99.90;;;;;;5003739;23;20233;-83
2020/12/27 06:10:02;;;;;;;0.60;0.60;;;6.30;99.90;;;;;;4952789;29;20216;-83
2020/12/27 06:13:33;;;;;;;1.80;1.23;;;6.30;99.90;;;;;;4980307;23;20209;-83
2020/12/27 06:16:13;;;;;;;0.50;0.50;;;6.30;99.90;;;;;;4964009;29;20237;-83
2020/12/27 06:18:55;;;;;;;0.70;0.70;;;6.40;99.90;;;;;;4959135;29;20201;-83
2020/12/27 06:21:31;;;;;;;0.60;0.50;;;6.40;99.90;;;;;;4959515;29;20655;-84
2020/12/27 06:23:59;;;;;;;1.07;0.67;;;6.60;99.90;;;;;;4975261;29;20209;-83
2020/12/27 06:26:37;;;;;;;0.70;0.70;;;6.50;99.90;;;;;;4974890;29;20457;-83
2020/12/27 06:29:15;;;;;;;0.60;0.60;;;6.50;99.90;;;;;;4975717;29;20194;-84
2020/12/27 06:31:50;;;;;;;1.20;1.17;;;6.50;99.90;;;;;;4981417;23;20217;-84
2020/12/27 06:34:26;;;;;;;0.67;0.60;;;6.50;99.90;;;;;;4975187;29;20233;-83
2020/12/27 06:36:58;;;;;;;1.47;0.80;;;6.40;99.90;;;;;;4974752;29;20751;-83
2020/12/27 06:39:31;;;;;;;1.63;0.70;;;6.50;99.90;;;;;;4974095;29;20265;-83
2020/12/27 06:42:13;;;;;;;1.13;0.50;;;6.50;99.90;;;;;;4974914;29;20650;-82
2020/12/27 06:44:42;;;;;;;0.57;0.50;;;6.40;99.90;;;;;;4975376;29;20284;-83
2020/12/27 06:47:16;;;;;;;2.70;0.70;;;6.40;99.90;;;;;;4973149;29;20261;-83
2020/12/27 06:49:46;;;;;;;0.80;0.80;;;6.40;99.90;;;;;;4975619;29;20297;-83
2020/12/27 06:52:19;;;;;;;0.50;0.50;;;6.40;99.90;;;;;;4977197;29;20182;-84
2020/12/27 06:54:57;;;;;;;1.10;0.57;;;6.40;99.90;;;;;;4981333;28;20262;-83
2020/12/27 06:57:48;;;;;;;1.27;0.90;;;6.50;99.90;;;;;;4981521;29;20437;-83
2020/12/27 07:00:21;;;;;;;0.50;0.50;;;6.50;99.90;;;;;;4980869;29;20216;-83
2020/12/27 07:03:10;;;;;;;1.67;0.97;;;6.50;99.90;;;;;;4980726;29;20189;-83
2020/12/27 07:05:42;;;;;;;0.50;0.50;;;6.50;99.90;;;;;;4980066;29;20741;-83
2020/12/27 07:08:16;;;;;;;1.77;0.73;;;6.50;99.90;;;;;;4963713;29;20226;-83
2020/12/27 07:10:46;;;;;;;0.50;0.50;;;6.50;99.90;;;;;;4980598;29;20206;-83
2020/12/27 07:13:14;;;;;;;0.70;0.50;;;6.50;99.90;;;;;;4980328;28;20225;-83
2020/12/27 07:15:59;;;;;;;6.43;0.60;;;6.60;99.90;;;;;;4994741;23;20314;-82
2020/12/27 07:18:47;;;;;;;0.80;0.80;;;6.60;99.90;;;;;;4945021;28;20190;-84
2020/12/27 07:21:17;;;;;;;2.30;0.57;;;6.60;99.90;;;;;;4956154;29;20206;-84
2020/12/27 07:26:20;;;;;;;1.47;0.60;;;6.60;99.90;;;;;;4940769;29;20253;-84
2020/12/27 07:31:20;;;;;;;0.63;0.63;;;6.60;99.90;;;;;;4979704;23;20230;-83
2020/12/27 07:34:17;;;;;;;0.50;0.50;;;6.60;99.90;;;;;;4944971;29;20195;-84
2020/12/27 07:37:20;;;;;;;0.70;0.70;;;6.60;99.90;;;;;;4959597;29;20233;-83
2020/12/27 07:40:16;;;;;;;1.07;0.80;;;6.60;99.90;;;;;;4957408;29;20233;-84
2020/12/27 07:42:43;;;;;;;0.40;0.40;;;6.70;99.90;;;;;;4954291;29;20207;-84
2020/12/27 07:47:59;;;;;;;0.83;0.60;;;6.70;99.90;;;;;;4996195;28;20220;-84
2020/12/27 07:50:27;;;;;;;0.60;0.57;;;6.70;99.90;;;;;;4998646;28;20209;-83
2020/12/27 07:53:01;;;;;;;0.87;0.47;;;6.70;99.90;;;;;;4997707;28;20240;-83
2020/12/27 07:55:34;;;;;;;0.50;0.50;;;6.70;99.90;;;;;;5012072;23;20253;-84
2020/12/27 07:58:09;;;;;;;0.70;0.70;;;6.80;99.90;;;;;;4978310;29;20449;-84
2020/12/27 08:00:42;;;;;;;0.53;0.53;;;6.90;99.90;;;;;;4979180;29;20194;-83
2020/12/27 08:06:01;;;;;;;0.87;0.70;;;6.90;99.90;;;;;;4974537;26;20245;-83
2020/12/27 08:08:41;;;;;;;0.40;0.40;;;7.00;99.90;;;;;;4956906;29;20238;-84
2020/12/27 08:11:21;;;;;;;0.50;0.50;;;6.90;99.90;;;;;;4956021;29;20226;-83
2020/12/27 08:13:52;;;;;;;0.60;0.57;;;6.80;99.90;;;;;;4954659;29;20218;-83
2020/12/27 08:16:20;;;;;;;0.60;0.43;;;6.90;99.90;;;;;;4954627;29;20298;-84
2020/12/27 08:18:50;;;;;;;0.67;0.60;;;6.90;99.90;;;;;;4938206;29;20242;-83
2020/12/27 08:21:20;;;;;;;0.97;0.73;;;6.90;99.90;;;;;;4954800;29;20215;-84
2020/12/27 08:24:06;;;;;;;0.57;0.50;;;6.90;99.90;;;;;;4956091;29;20538;-84
2020/12/27 08:26:39;;;;;;;0.50;0.50;;;7.00;99.90;;;;;;4954505;29;20701;-83
2020/12/27 08:29:11;;;;;;;0.60;0.60;;;7.00;99.90;;;;;;4953836;29;20210;-83
2020/12/27 08:31:38;;;;;;;0.63;0.60;;;7.00;99.90;;;;;;4937924;29;20238;-83
2020/12/27 08:34:08;;;;;;;0.70;0.70;;;7.10;99.90;;;;;;4954571;29;20203;-83
2020/12/27 08:36:35;;;;;;;0.40;0.40;;;7.00;99.90;;;;;;4953783;29;20242;-84
2020/12/27 08:39:17;;;;;;;0.53;0.40;;;7.00;99.90;;;;;;4954881;29;20203;-83
2020/12/27 08:41:57;;;;;;;0.83;0.60;;;7.00;99.90;;;;;;4954626;29;20214;-84
2020/12/27 08:44:49;;;;;;;0.60;0.60;;;7.00;99.90;;;;;;4954214;29;20217;-83
2020/12/27 08:47:37;;;;;;;0.47;0.40;;;7.00;99.90;;;;;;4936762;29;20286;-84
2020/12/27 08:50:07;;;;;;;0.60;0.60;;;6.90;99.90;;;;;;4953722;29;20215;-83
2020/12/27 08:52:35;;;;;;;0.73;0.60;;;6.90;99.90;;;;;;4953296;29;20217;-84
2020/12/27 08:55:06;;;;;;;0.50;0.50;;;6.90;99.90;;;;;;4953569;29;20226;-83
2020/12/27 08:57:39;;;;;;;0.60;0.50;;;7.00;99.90;;;;;;4939994;29;20226;-83
2020/12/27 09:00:18;;;;;;;1.03;0.80;;;6.90;99.90;;;;;;4956346;28;20221;-84
2020/12/27 09:02:59;;;;;;;0.60;0.60;;;6.90;99.90;;;;;;4955659;29;20291;-83
2020/12/27 09:05:27;;;;;;;1.33;0.60;;;6.80;99.90;;;;;;4955593;29;20238;-83
2020/12/27 09:07:58;;;;;;;0.50;0.50;;;6.90;99.90;;;;;;4955548;29;20679;-82
2020/12/27 09:10:29;;;;;;;0.60;0.60;;;6.80;99.90;;;;;;4955077;29;20202;-84
2020/12/27 09:13:00;;;;;;;0.63;0.63;;;6.80;99.90;;;;;;4953021;29;20213;-84
2020/12/27 09:15:36;;;;;;;0.77;0.63;;;6.80;99.90;;;;;;4954738;29;20230;-83
2020/12/27 09:18:06;;;;;;;1.70;0.60;;;6.80;99.90;;;;;;4955860;29;20275;-83
2020/12/27 09:20:45;;;;;;;1.37;0.40;;;6.90;99.90;;;;;;4954025;29;20207;-83
2020/12/27 09:23:14;;;;;;;0.90;0.60;;;6.80;99.90;;;;;;4950291;29;20655;-84
2020/12/27 09:26:07;;;;;;;0.87;0.47;;;6.90;99.90;;;;;;4933043;29;20214;-83
2020/12/27 09:28:38;;;;;;;0.73;0.73;;;6.90;99.90;;;;;;4951770;29;20213;-84
2020/12/27 09:31:07;;;;;;;0.83;0.50;;;7.00;99.90;;;;;;4950760;29;20210;-83
2020/12/27 09:33:45;;;;;;;0.40;0.40;;;6.90;99.90;;;;;;4935983;29;20275;-83
2020/12/27 09:36:17;;;;;;;0.57;0.57;;;6.90;99.90;;;;;;4936336;29;20238;-83
2020/12/27 09:38:50;;;;;;;1.17;0.57;;;6.90;99.90;;;;;;4936650;29;20259;-83
2020/12/27 09:41:30;;;;;;;1.33;0.60;;;6.90;99.90;;;;;;4952033;23;20285;-84
2020/12/27 09:43:59;;;;;;;1.37;0.70;;;6.90;99.90;;;;;;4970443;28;20220;-83
2020/12/27 09:46:44;;;;;;;2.40;0.70;;;6.90;99.90;;;;;;4972358;28;20229;-84
2020/12/27 09:49:22;;;;;;;1.40;0.73;;;6.90;99.90;;;;;;4973154;29;20213;-84
2020/12/27 09:52:05;;;;;;;1.60;0.90;;;7.10;99.90;;;;;;4972043;29;20473;-83
2020/12/27 09:54:33;;;;;;;1.07;0.60;;;7.00;99.90;;;;;;4972136;29;20217;-84
2020/12/27 09:57:10;;;;;;;0.60;0.60;;;7.00;99.90;;;;;;4972630;29;20226;-83
2020/12/27 09:59:39;;;;;;;0.43;0.43;;;7.10;99.90;;;;;;4972092;29;20209;-83
2020/12/27 10:02:06;;;;;;;2.03;0.80;;;7.00;99.90;;;;;;4971860;29;20216;-84
2020/12/27 10:04:34;;;;;;;0.60;0.50;;;7.10;99.90;;;;;;4973255;29;20209;-84
2020/12/27 10:07:02;;;;;;;0.60;0.60;;;7.00;99.90;;;;;;4971823;29;20281;-83
2020/12/27 10:09:31;;;;;;;0.67;0.60;;;7.00;99.90;;;;;;4972585;29;20210;-84
2020/12/27 10:12:02;;;;;;;0.40;0.40;;;7.00;99.90;;;;;;4956973;29;20202;-84
2020/12/27 10:14:30;;;;;;;0.70;0.70;;;7.00;99.90;;;;;;4973176;29;20209;-84
2020/12/27 10:17:06;;;;;;;1.90;0.77;;;7.10;99.90;;;;;;4973118;29;20245;-83
2020/12/27 10:19:33;;;;;;;1.30;0.60;;;7.10;99.90;;;;;;4972706;29;20264;-83
2020/12/27 10:22:13;;;;;;;0.80;0.50;;;7.10;99.90;;;;;;4955412;29;20200;-83
2020/12/27 10:24:43;;;;;;;0.63;0.63;;;7.10;99.90;;;;;;4973005;29;20233;-84
2020/12/27 10:27:14;;;;;;;0.60;0.60;;;7.00;99.90;;;;;;4971617;29;20237;-84
2020/12/27 10:29:42;;;;;;;0.70;0.70;;;7.20;99.90;;;;;;4972419;29;20236;-83
2020/12/27 10:32:10;;;;;;;0.97;0.50;;;7.20;99.90;;;;;;4972609;29;20296;-83
2020/12/27 10:34:39;;;;;;;0.37;0.37;;;7.10;99.90;;;;;;4974030;29;20241;-84
2020/12/27 10:37:07;;;;;;;3.97;0.60;;;7.10;99.90;;;;;;4972987;29;20222;-83
2020/12/27 10:39:35;;;;;;;0.87;0.87;;;7.00;99.90;;;;;;4972042;29;20217;-83
2020/12/27 10:42:12;;;;;;;0.83;0.67;;;7.10;99.90;;;;;;4984727;28;20220;-83
2020/12/27 10:44:51;;;;;;;0.60;0.60;;;7.10;99.90;;;;;;4993301;28;20213;-83
2020/12/27 10:47:23;;;;;;;0.70;0.60;;;7.10;99.90;;;;;;4992789;28;20288;-84
2020/12/27 10:49:52;;;;;;;0.63;0.50;;;7.20;99.90;;;;;;4990409;28;20205;-83
2020/12/27 10:52:20;;;;;;;0.67;0.67;;;7.20;99.90;;;;;;4992825;28;20209;-83
2020/12/27 10:54:50;;;;;;;0.60;0.60;;;7.20;99.90;;;;;;4975303;28;20260;-84
2020/12/27 10:57:18;;;;;;;0.83;0.60;;;7.20;99.90;;;;;;4984024;28;20233;-84
2020/12/27 10:59:49;;;;;;;0.80;0.63;;;7.20;99.90;;;;;;4993326;28;20209;-84
2020/12/27 11:02:17;;;;;;;1.30;0.70;;;7.20;99.90;;;;;;4978137;28;20209;-83
2020/12/27 11:04:45;;;;;;;0.77;0.60;;;7.10;99.90;;;;;;4994688;28;20236;-83
2020/12/27 11:07:17;;;;;;;0.80;0.80;;;7.20;99.90;;;;;;4995280;28;20257;-83
2020/12/27 11:09:44;;;;;;;0.50;0.50;;;7.20;99.90;;;;;;4994635;28;20336;-83
2020/12/27 11:12:21;;;;;;;2.53;0.50;;;7.20;99.90;;;;;;4994662;28;20236;-83
2020/12/27 11:14:51;;;;;;;1.33;0.73;;;7.20;99.90;;;;;;4994943;28;20225;-83
2020/12/27 11:17:20;;;;;;;1.30;0.80;;;7.20;99.90;;;;;;4994888;28;20229;-84
2020/12/27 11:19:52;;;;;;;1.20;0.83;;;7.20;99.90;;;;;;4995339;28;20225;-83
2020/12/27 11:22:21;;;;;;;0.93;0.70;;;7.20;99.90;;;;;;4997761;28;20194;-84
2020/12/27 11:27:39;;;;;;;2.10;0.90;;;7.20;99.90;;;;;;4997198;28;20224;-84
2020/12/27 11:30:22;;;;;;;0.73;0.67;;;7.20;99.90;;;;;;5014651;23;20240;-83
2020/12/27 11:33:03;;;;;;;0.50;0.50;;;7.20;99.90;;;;;;4978237;29;20230;-84
2020/12/27 11:35:45;;;;;;;0.83;0.80;;;7.20;99.90;;;;;;4993587;23;20225;-83
2020/12/27 11:38:12;;;;;;;0.70;0.57;;;7.20;99.90;;;;;;4957657;29;20238;-84
2020/12/27 11:40:40;;;;;;;1.60;0.87;;;7.30;99.90;;;;;;4958402;28;20231;-84
2020/12/27 11:43:07;;;;;;;1.30;0.60;;;7.20;99.90;;;;;;4958305;29;20213;-84
2020/12/27 11:45:40;;;;;;;1.63;1.07;;;7.30;99.90;;;;;;4974653;23;20258;-83
2020/12/27 11:48:12;;;;;;;0.53;0.50;;;7.30;99.90;;;;;;4958925;29;20237;-84
2020/12/27 11:50:40;;;;;;;0.70;0.70;;;7.30;99.90;;;;;;4959306;29;20195;-83
2020/12/27 11:53:09;;;;;;;1.93;0.53;;;7.30;99.90;;;;;;4958063;29;20217;-84
2020/12/27 11:55:44;;;;;;;1.43;0.50;;;7.30;99.90;;;;;;4982446;23;20253;-83
2020/12/27 11:58:36;;;;;;;0.90;0.90;;;7.30;99.90;;;;;;5020439;23;20312;-85
2020/12/27 12:01:23;;;;;;;0.73;0.73;;;7.20;99.90;;;;;;4989533;28;20215;-85
2020/12/27 12:03:55;;;;;;;0.63;0.60;;;7.20;99.90;;;;;;4976262;28;20265;-85
2020/12/27 12:06:24;;;;;;;1.50;0.90;;;7.30;99.90;;;;;;4993711;28;20232;-85
2020/12/27 12:12:00;;;;;;;0.80;0.80;;;7.20;99.90;;;;;;4999414;28;20197;-87
2020/12/27 12:22:58;;;;;;;0.70;0.70;;;7.30;99.90;;;;;;4973107;28;20190;-86
2020/12/27 12:25:40;;;;;;;2.37;0.70;;;7.30;99.90;;;;;;4976742;29;20201;-86
2020/12/27 12:47:26;;;;;;;0.70;0.70;;;7.30;99.90;;;;;;5254519;23;20322;-85
2020/12/27 12:50:46;;;;;;;0.97;0.97;;;7.30;99.90;;;;;;4998920;23;20233;-84
2020/12/27 12:57:12;;;;;;;1.10;1.10;;;7.30;99.90;;;;;;5177521;23;20285;-86
2020/12/27 13:30:32;;;;;;;1.43;1.43;;;7.10;99.90;;;;;;1702119;23;20496;-83
2020/12/27 13:33:01;;;;;;;0.50;0.40;;;7.00;99.90;;;;;;4973131;29;20217;-83
2020/12/27 13:35:50;;;;;;;1.07;0.50;;;7.10;99.90;;;;;;4974968;29;20253;-83
2020/12/27 13:38:24;;;;;;;1.50;0.50;;;7.00;99.90;;;;;;4972020;29;20237;-83
2020/12/27 13:40:54;;;;;;;1.27;0.60;;;6.90;99.90;;;;;;4974164;29;20202;-83
2020/12/27 13:43:25;;;;;;;0.50;0.50;;;6.90;99.90;;;;;;4974272;29;20209;-83
2020/12/27 13:45:56;;;;;;;1.67;0.50;;;6.90;99.90;;;;;;4975558;29;20222;-83
2020/12/27 13:48:27;;;;;;;1.63;0.60;;;6.90;99.90;;;;;;4975774;29;20205;-83
2020/12/27 13:56:18;;;;;;;1.33;1.27;;;6.90;99.90;;;;;;4965380;23;20261;-82
2020/12/27 14:04:57;;;;;;;0.60;0.60;;;7.00;99.90;;;;;;4490429;26;20234;-83
2020/12/27 14:11:02;;;;;;;0.50;0.50;;;7.00;99.90;;;;;;4935643;29;20222;-83
2020/12/27 14:13:45;;;;;;;0.70;0.70;;;6.90;99.90;;;;;;4925997;29;20232;-83
2020/12/27 14:16:19;;;;;;;1.33;0.70;;;6.90;99.90;;;;;;4919587;29;20250;-83
2020/12/27 14:24:35;;;;;;;0.40;0.40;;;6.90;99.90;;;;;;4957013;29;20225;-83
2020/12/27 14:27:12;;;;;;;1.93;0.60;;;6.80;99.90;;;;;;4958185;29;20240;-83
2020/12/27 14:29:50;;;;;;;1.90;0.60;;;6.80;99.90;;;;;;4958863;29;20218;-83
2020/12/27 14:32:24;;;;;;;0.70;0.70;;;6.90;99.90;;;;;;4958607;29;20225;-83
2020/12/27 14:34:57;;;;;;;0.70;0.70;;;6.90;99.90;;;;;;4952148;29;20199;-83
2020/12/27 15:04:26;;;;;;;1.50;1.40;;;7.10;99.90;;;;;;5021265;23;20213;-82
2020/12/27 15:25:15;;;;;;;1.43;1.00;;;6.90;99.90;;;;;;4910310;29;20213;-83
2020/12/27 15:33:29;;;;;;;1.57;1.30;;;6.90;99.90;;;;;;5178638;23;20260;-85
2020/12/27 15:36:06;;;;;;;0.63;0.63;;;6.90;99.90;;;;;;4960268;29;20249;-84
2020/12/27 15:39:02;;;;;;;0.70;0.70;;;6.70;99.90;;;;;;5005766;23;20244;-85
2020/12/27 15:50:35;;;;;;;1.80;0.90;;;6.80;99.90;;;;;;1581492;23;21665;-78
2020/12/27 16:06:59;;;;;;;0.67;0.67;;;6.70;99.90;;;;;;5010037;23;20807;-84
2020/12/27 16:09:39;;;;;;;1.53;0.80;;;6.50;99.90;;;;;;4959831;29;20210;-85
2020/12/27 16:12:30;;;;;;;0.90;0.90;;;6.60;99.90;;;;;;4958183;29;20434;-84
2020/12/27 16:30:59;;;;;;;3.47;1.37;;;6.70;99.90;;;;;;4938325;29;20254;-84
2020/12/27 16:33:52;;;;;;;2.17;1.30;;;6.90;99.90;;;;;;4940589;29;20263;-84
2020/12/27 16:36:43;;;;;;;1.33;0.97;;;6.70;99.90;;;;;;4939372;29;20231;-83